sensor_id;sensor_type;location;lat;lon;timestamp;P1;durP1;ratioP1;P2;durP2;ratioP2
22780;SDS011;11557;50.884;4.322;2023-04-01T00:02:18;7.75;;;2.13;;
22780;SDS011;11557;50.884;4.322;2023-04-01T00:04:44;10.70;;;2.47;;
22780;SDS011;11557;50.884;4.322;2023-04-01T00:07:10;12.20;;;2.85;;
22780;SDS011;11557;50.884;4.322;2023-04-01T00:09:36;8.80;;;2.97;;
22780;SDS011;11557;50.884;4.322;2023-04-01T00:12:02;16.85;;;3.00;;
22780;SDS011;11557;50.884;4.322;2023-04-01T00:14:28;9.05;;;2.50;;
22780;SDS011;11557;50.884;4.322;2023-04-01T00:16:54;11.50;;;2.45;;
22780;SDS011;11557;50.884;4.322;2023-04-01T00:19:20;8.98;;;2.13;;
22780;SDS011;11557;50.884;4.322;2023-04-01T00:21:46;11.00;;;2.67;;
22780;SDS011;11557;50.884;4.322;2023-04-01T00:24:11;12.00;;;2.17;;
22780;SDS011;11557;50.884;4.322;2023-04-01T00:26:37;8.40;;;2.28;;
22780;SDS011;11557;50.884;4.322;2023-04-01T00:29:03;10.98;;;2.40;;
22780;SDS011;11557;50.884;4.322;2023-04-01T00:31:28;12.57;;;2.28;;
22780;SDS011;11557;50.884;4.322;2023-04-01T00:33:55;6.43;;;1.63;;
22780;SDS011;11557;50.884;4.322;2023-04-01T00:36:21;7.72;;;1.75;;
22780;SDS011;11557;50.884;4.322;2023-04-01T00:38:48;8.57;;;1.73;;
22780;SDS011;11557;50.884;4.322;2023-04-01T00:41:15;7.90;;;2.15;;
22780;SDS011;11557;50.884;4.322;2023-04-01T00:43:48;10.73;;;1.80;;
22780;SDS011;11557;50.884;4.322;2023-04-01T00:46:16;9.15;;;1.75;;
22780;SDS011;11557;50.884;4.322;2023-04-01T00:48:44;7.32;;;1.88;;
22780;SDS011;11557;50.884;4.322;2023-04-01T00:51:31;5.65;;;1.55;;
22780;SDS011;11557;50.884;4.322;2023-04-01T00:53:58;8.48;;;1.50;;
22780;SDS011;11557;50.884;4.322;2023-04-01T00:56:33;7.25;;;1.55;;
22780;SDS011;11557;50.884;4.322;2023-04-01T00:59:08;7.47;;;1.85;;
22780;SDS011;11557;50.884;4.322;2023-04-01T01:01:39;11.23;;;1.77;;
22780;SDS011;11557;50.884;4.322;2023-04-01T01:04:05;5.30;;;1.45;;
22780;SDS011;11557;50.884;4.322;2023-04-01T01:09:48;6.05;;;1.65;;
22780;SDS011;11557;50.884;4.322;2023-04-01T01:12:26;7.22;;;1.63;;
22780;SDS011;11557;50.884;4.322;2023-04-01T01:15:22;6.07;;;1.75;;
22780;SDS011;11557;50.884;4.322;2023-04-01T01:17:53;5.43;;;1.50;;
22780;SDS011;11557;50.884;4.322;2023-04-01T01:29:07;4.95;;;2.10;;
22780;SDS011;11557;50.884;4.322;2023-04-01T01:31:56;8.20;;;2.20;;
22780;SDS011;11557;50.884;4.322;2023-04-01T01:37:32;6.03;;;2.50;;
22780;SDS011;11557;50.884;4.322;2023-04-01T01:40:00;7.25;;;3.17;;
22780;SDS011;11557;50.884;4.322;2023-04-01T01:42:30;8.43;;;3.15;;
22780;SDS011;11557;50.884;4.322;2023-04-01T01:44:58;6.40;;;3.20;;
22780;SDS011;11557;50.884;4.322;2023-04-01T01:47:26;9.82;;;3.38;;
22780;SDS011;11557;50.884;4.322;2023-04-01T01:49:54;8.27;;;3.80;;
22780;SDS011;11557;50.884;4.322;2023-04-01T01:52:21;11.02;;;4.38;;
22780;SDS011;11557;50.884;4.322;2023-04-01T01:54:51;9.82;;;4.18;;
22780;SDS011;11557;50.884;4.322;2023-04-01T01:57:22;8.68;;;5.13;;
22780;SDS011;11557;50.884;4.322;2023-04-01T01:59:51;12.77;;;4.63;;
22780;SDS011;11557;50.884;4.322;2023-04-01T02:02:21;8.93;;;5.45;;
22780;SDS011;11557;50.884;4.322;2023-04-01T02:04:47;11.43;;;5.65;;
22780;SDS011;11557;50.884;4.322;2023-04-01T02:07:20;12.55;;;6.30;;
22780;SDS011;11557;50.884;4.322;2023-04-01T02:09:50;13.27;;;6.55;;
22780;SDS011;11557;50.884;4.322;2023-04-01T02:12:16;15.10;;;6.50;;
22780;SDS011;11557;50.884;4.322;2023-04-01T02:17:24;12.30;;;5.35;;
22780;SDS011;11557;50.884;4.322;2023-04-01T02:19:59;10.20;;;4.10;;
22780;SDS011;11557;50.884;4.322;2023-04-01T02:22:37;7.45;;;3.65;;
22780;SDS011;11557;50.884;4.322;2023-04-01T02:25:17;8.75;;;4.25;;
22780;SDS011;11557;50.884;4.322;2023-04-01T02:27:46;7.97;;;4.10;;
22780;SDS011;11557;50.884;4.322;2023-04-01T02:30:13;7.93;;;3.88;;
22780;SDS011;11557;50.884;4.322;2023-04-01T02:32:40;11.55;;;4.65;;
22780;SDS011;11557;50.884;4.322;2023-04-01T02:35:11;10.38;;;3.72;;
22780;SDS011;11557;50.884;4.322;2023-04-01T02:37:39;9.68;;;3.58;;
22780;SDS011;11557;50.884;4.322;2023-04-01T02:40:10;12.57;;;4.43;;
22780;SDS011;11557;50.884;4.322;2023-04-01T02:42:37;10.50;;;3.50;;
22780;SDS011;11557;50.884;4.322;2023-04-01T02:45:03;12.85;;;3.92;;
22780;SDS011;11557;50.884;4.322;2023-04-01T02:47:30;15.60;;;3.78;;
22780;SDS011;11557;50.884;4.322;2023-04-01T02:49:56;11.93;;;3.60;;
22780;SDS011;11557;50.884;4.322;2023-04-01T02:52:24;10.80;;;3.58;;
22780;SDS011;11557;50.884;4.322;2023-04-01T02:54:50;10.82;;;3.55;;
22780;SDS011;11557;50.884;4.322;2023-04-01T02:57:16;13.32;;;4.30;;
22780;SDS011;11557;50.884;4.322;2023-04-01T02:59:41;10.50;;;4.20;;
22780;SDS011;11557;50.884;4.322;2023-04-01T03:02:07;14.60;;;4.57;;
22780;SDS011;11557;50.884;4.322;2023-04-01T03:04:33;13.15;;;4.32;;
22780;SDS011;11557;50.884;4.322;2023-04-01T03:06:58;10.38;;;4.78;;
22780;SDS011;11557;50.884;4.322;2023-04-01T03:09:24;14.40;;;5.05;;
22780;SDS011;11557;50.884;4.322;2023-04-01T03:11:50;12.35;;;4.20;;
22780;SDS011;11557;50.884;4.322;2023-04-01T03:14:15;8.93;;;4.38;;
22780;SDS011;11557;50.884;4.322;2023-04-01T03:16:41;11.77;;;4.50;;
22780;SDS011;11557;50.884;4.322;2023-04-01T03:19:07;8.95;;;3.80;;
22780;SDS011;11557;50.884;4.322;2023-04-01T03:21:32;12.07;;;5.72;;
22780;SDS011;11557;50.884;4.322;2023-04-01T03:23:58;14.85;;;6.10;;
22780;SDS011;11557;50.884;4.322;2023-04-01T03:26:24;14.88;;;6.43;;
22780;SDS011;11557;50.884;4.322;2023-04-01T03:28:51;14.38;;;6.88;;
22780;SDS011;11557;50.884;4.322;2023-04-01T03:31:17;18.90;;;6.97;;
22780;SDS011;11557;50.884;4.322;2023-04-01T03:33:43;18.25;;;8.48;;
22780;SDS011;11557;50.884;4.322;2023-04-01T03:36:09;17.38;;;7.95;;
22780;SDS011;11557;50.884;4.322;2023-04-01T03:38:37;22.52;;;8.32;;
22780;SDS011;11557;50.884;4.322;2023-04-01T03:41:04;16.90;;;7.85;;
22780;SDS011;11557;50.884;4.322;2023-04-01T03:43:31;16.42;;;7.20;;
22780;SDS011;11557;50.884;4.322;2023-04-01T03:45:57;21.35;;;8.25;;
22780;SDS011;11557;50.884;4.322;2023-04-01T03:48:23;24.45;;;8.88;;
22780;SDS011;11557;50.884;4.322;2023-04-01T03:50:50;20.08;;;8.63;;
22780;SDS011;11557;50.884;4.322;2023-04-01T03:53:16;18.83;;;8.45;;
22780;SDS011;11557;50.884;4.322;2023-04-01T03:55:42;18.33;;;8.50;;
22780;SDS011;11557;50.884;4.322;2023-04-01T03:58:08;21.05;;;8.27;;
22780;SDS011;11557;50.884;4.322;2023-04-01T04:00:34;17.23;;;7.10;;
22780;SDS011;11557;50.884;4.322;2023-04-01T04:02:59;16.38;;;8.27;;
22780;SDS011;11557;50.884;4.322;2023-04-01T04:05:25;20.88;;;8.18;;
22780;SDS011;11557;50.884;4.322;2023-04-01T04:07:52;19.80;;;7.93;;
22780;SDS011;11557;50.884;4.322;2023-04-01T04:10:18;14.15;;;6.50;;
22780;SDS011;11557;50.884;4.322;2023-04-01T04:12:44;22.77;;;7.70;;
22780;SDS011;11557;50.884;4.322;2023-04-01T04:15:11;20.13;;;7.63;;
22780;SDS011;11557;50.884;4.322;2023-04-01T04:17:37;15.45;;;6.90;;
22780;SDS011;11557;50.884;4.322;2023-04-01T04:20:03;17.88;;;7.25;;
22780;SDS011;11557;50.884;4.322;2023-04-01T04:22:30;16.15;;;7.00;;
22780;SDS011;11557;50.884;4.322;2023-04-01T04:24:55;13.57;;;6.55;;
22780;SDS011;11557;50.884;4.322;2023-04-01T04:27:21;14.13;;;7.00;;
22780;SDS011;11557;50.884;4.322;2023-04-01T04:29:46;11.10;;;6.35;;
22780;SDS011;11557;50.884;4.322;2023-04-01T04:32:12;10.07;;;5.35;;
22780;SDS011;11557;50.884;4.322;2023-04-01T04:34:38;12.75;;;6.07;;
22780;SDS011;11557;50.884;4.322;2023-04-01T04:37:04;9.23;;;4.97;;
22780;SDS011;11557;50.884;4.322;2023-04-01T04:39:29;10.25;;;5.63;;
22780;SDS011;11557;50.884;4.322;2023-04-01T04:41:55;10.00;;;5.28;;
22780;SDS011;11557;50.884;4.322;2023-04-01T04:44:21;8.88;;;5.22;;
22780;SDS011;11557;50.884;4.322;2023-04-01T04:46:46;8.52;;;4.32;;
22780;SDS011;11557;50.884;4.322;2023-04-01T04:49:12;8.15;;;4.97;;
22780;SDS011;11557;50.884;4.322;2023-04-01T04:51:38;6.60;;;4.18;;
22780;SDS011;11557;50.884;4.322;2023-04-01T04:54:05;6.45;;;3.95;;
22780;SDS011;11557;50.884;4.322;2023-04-01T04:56:31;6.50;;;4.70;;
22780;SDS011;11557;50.884;4.322;2023-04-01T04:58:57;10.20;;;4.82;;
22780;SDS011;11557;50.884;4.322;2023-04-01T05:01:23;8.27;;;4.13;;
22780;SDS011;11557;50.884;4.322;2023-04-01T05:03:49;4.82;;;2.92;;
22780;SDS011;11557;50.884;4.322;2023-04-01T05:06:15;4.47;;;3.33;;
22780;SDS011;11557;50.884;4.322;2023-04-01T05:08:42;4.47;;;3.67;;
22780;SDS011;11557;50.884;4.322;2023-04-01T05:11:12;6.25;;;3.90;;
22780;SDS011;11557;50.884;4.322;2023-04-01T05:13:40;5.85;;;3.85;;
22780;SDS011;11557;50.884;4.322;2023-04-01T05:16:10;6.28;;;4.03;;
22780;SDS011;11557;50.884;4.322;2023-04-01T05:18:41;7.75;;;4.43;;
22780;SDS011;11557;50.884;4.322;2023-04-01T05:21:07;8.10;;;4.07;;
22780;SDS011;11557;50.884;4.322;2023-04-01T05:23:34;7.90;;;5.05;;
22780;SDS011;11557;50.884;4.322;2023-04-01T05:26:07;8.10;;;5.32;;
22780;SDS011;11557;50.884;4.322;2023-04-01T05:28:34;10.00;;;5.40;;
22780;SDS011;11557;50.884;4.322;2023-04-01T05:31:00;9.55;;;5.47;;
22780;SDS011;11557;50.884;4.322;2023-04-01T05:33:27;10.27;;;5.68;;
22780;SDS011;11557;50.884;4.322;2023-04-01T05:35:53;10.38;;;6.38;;
22780;SDS011;11557;50.884;4.322;2023-04-01T05:38:19;10.52;;;7.10;;
22780;SDS011;11557;50.884;4.322;2023-04-01T05:40:44;14.25;;;7.90;;
22780;SDS011;11557;50.884;4.322;2023-04-01T05:43:10;12.48;;;7.70;;
22780;SDS011;11557;50.884;4.322;2023-04-01T05:45:36;13.43;;;9.07;;
22780;SDS011;11557;50.884;4.322;2023-04-01T05:48:02;16.40;;;8.27;;
22780;SDS011;11557;50.884;4.322;2023-04-01T05:50:28;13.10;;;8.35;;
22780;SDS011;11557;50.884;4.322;2023-04-01T05:52:54;16.42;;;8.63;;
22780;SDS011;11557;50.884;4.322;2023-04-01T05:55:20;10.15;;;5.65;;
22780;SDS011;11557;50.884;4.322;2023-04-01T05:57:46;17.58;;;7.85;;
22780;SDS011;11557;50.884;4.322;2023-04-01T06:00:13;15.82;;;9.32;;
22780;SDS011;11557;50.884;4.322;2023-04-01T06:02:39;13.25;;;8.43;;
22780;SDS011;11557;50.884;4.322;2023-04-01T06:05:26;16.42;;;9.25;;
22780;SDS011;11557;50.884;4.322;2023-04-01T06:08:05;13.13;;;9.52;;
22780;SDS011;11557;50.884;4.322;2023-04-01T06:16:27;20.30;;;10.40;;
22780;SDS011;11557;50.884;4.322;2023-04-01T06:19:13;19.80;;;10.93;;
22780;SDS011;11557;50.884;4.322;2023-04-01T06:24:48;16.65;;;10.93;;
22780;SDS011;11557;50.884;4.322;2023-04-01T06:27:40;16.27;;;10.15;;
22780;SDS011;11557;50.884;4.322;2023-04-01T06:30:32;18.00;;;10.55;;
22780;SDS011;11557;50.884;4.322;2023-04-01T06:43:53;14.50;;;8.65;;
22780;SDS011;11557;50.884;4.322;2023-04-01T06:51:54;20.27;;;10.40;;
22780;SDS011;11557;50.884;4.322;2023-04-01T06:57:29;17.50;;;9.50;;
22780;SDS011;11557;50.884;4.322;2023-04-01T07:00:04;12.57;;;8.93;;
22780;SDS011;11557;50.884;4.322;2023-04-01T07:02:41;18.15;;;8.57;;
22780;SDS011;11557;50.884;4.322;2023-04-01T07:05:23;22.35;;;9.18;;
22780;SDS011;11557;50.884;4.322;2023-04-01T07:07:51;12.13;;;7.93;;
22780;SDS011;11557;50.884;4.322;2023-04-01T07:10:28;8.50;;;6.07;;
22780;SDS011;11557;50.884;4.322;2023-04-01T07:19:04;8.38;;;4.20;;
22780;SDS011;11557;50.884;4.322;2023-04-01T07:21:45;5.07;;;3.45;;
22780;SDS011;11557;50.884;4.322;2023-04-01T07:24:20;6.22;;;3.28;;
22780;SDS011;11557;50.884;4.322;2023-04-01T07:27:01;3.40;;;2.28;;
22780;SDS011;11557;50.884;4.322;2023-04-01T07:29:26;2.90;;;2.40;;
22780;SDS011;11557;50.884;4.322;2023-04-01T07:43:14;2.28;;;1.20;;
22780;SDS011;11557;50.884;4.322;2023-04-01T07:51:45;2.22;;;1.27;;
22780;SDS011;11557;50.884;4.322;2023-04-01T07:57:04;4.88;;;3.03;;
22780;SDS011;11557;50.884;4.322;2023-04-01T07:59:42;2.42;;;2.22;;
22780;SDS011;11557;50.884;4.322;2023-04-01T08:13:08;3.10;;;1.63;;
22780;SDS011;11557;50.884;4.322;2023-04-01T08:15:53;3.72;;;1.70;;
22780;SDS011;11557;50.884;4.322;2023-04-01T08:21:01;3.08;;;1.90;;
22780;SDS011;11557;50.884;4.322;2023-04-01T08:23:46;2.00;;;1.80;;
22780;SDS011;11557;50.884;4.322;2023-04-01T08:26:34;2.20;;;1.77;;
22780;SDS011;11557;50.884;4.322;2023-04-01T08:29:10;2.58;;;1.42;;
22780;SDS011;11557;50.884;4.322;2023-04-01T08:31:43;2.35;;;1.60;;
22780;SDS011;11557;50.884;4.322;2023-04-01T08:34:20;2.50;;;1.52;;
22780;SDS011;11557;50.884;4.322;2023-04-01T08:36:50;2.08;;;1.70;;
22780;SDS011;11557;50.884;4.322;2023-04-01T08:39:38;4.88;;;3.45;;
22780;SDS011;11557;50.884;4.322;2023-04-01T08:53:27;8.10;;;2.20;;
22780;SDS011;11557;50.884;4.322;2023-04-01T09:07:43;4.20;;;1.90;;
22780;SDS011;11557;50.884;4.322;2023-04-01T09:16:12;5.68;;;2.70;;
22780;SDS011;11557;50.884;4.322;2023-04-01T09:36:46;5.13;;;2.80;;
22780;SDS011;11557;50.884;4.322;2023-04-01T09:45:03;6.60;;;3.10;;
22780;SDS011;11557;50.884;4.322;2023-04-01T09:52:59;3.42;;;2.63;;
22780;SDS011;11557;50.884;4.322;2023-04-01T10:04:11;5.93;;;2.30;;
22780;SDS011;11557;50.884;4.322;2023-04-01T10:23:27;4.10;;;2.10;;
22780;SDS011;11557;50.884;4.322;2023-04-01T10:44:58;2.78;;;1.17;;
22780;SDS011;11557;50.884;4.322;2023-04-01T10:51:14;2.00;;;1.23;;
22780;SDS011;11557;50.884;4.322;2023-04-01T10:56:42;1.85;;;1.05;;
22780;SDS011;11557;50.884;4.322;2023-04-01T11:19:09;1.30;;;1.00;;
22780;SDS011;11557;50.884;4.322;2023-04-01T11:21:59;2.35;;;1.00;;
22780;SDS011;11557;50.884;4.322;2023-04-01T11:44:47;4.95;;;2.17;;
22780;SDS011;11557;50.884;4.322;2023-04-01T11:50:38;2.45;;;1.65;;
22780;SDS011;11557;50.884;4.322;2023-04-01T12:01:49;3.03;;;1.40;;
22780;SDS011;11557;50.884;4.322;2023-04-01T12:07:23;2.90;;;1.70;;
22780;SDS011;11557;50.884;4.322;2023-04-01T12:45:28;2.03;;;1.50;;
22780;SDS011;11557;50.884;4.322;2023-04-01T13:26:45;2.67;;;1.35;;
22780;SDS011;11557;50.884;4.322;2023-04-01T13:32:09;1.50;;;1.40;;
22780;SDS011;11557;50.884;4.322;2023-04-01T13:35:18;5.47;;;1.55;;
22780;SDS011;11557;50.884;4.322;2023-04-01T13:37:59;6.32;;;3.88;;
22780;SDS011;11557;50.884;4.322;2023-04-01T13:43:02;2.88;;;1.85;;
22780;SDS011;11557;50.884;4.322;2023-04-01T13:45:42;1.70;;;1.30;;
22780;SDS011;11557;50.884;4.322;2023-04-01T13:49:16;3.05;;;1.33;;
22780;SDS011;11557;50.884;4.322;2023-04-01T14:00:19;2.63;;;1.50;;
22780;SDS011;11557;50.884;4.322;2023-04-01T14:10:36;2.78;;;1.70;;
22780;SDS011;11557;50.884;4.322;2023-04-01T14:13:20;3.33;;;1.88;;
22780;SDS011;11557;50.884;4.322;2023-04-01T14:16:04;2.58;;;1.50;;
22780;SDS011;11557;50.884;4.322;2023-04-01T14:21:50;2.80;;;1.40;;
22780;SDS011;11557;50.884;4.322;2023-04-01T14:27:38;3.22;;;1.60;;
22780;SDS011;11557;50.884;4.322;2023-04-01T14:38:51;1.92;;;1.30;;
22780;SDS011;11557;50.884;4.322;2023-04-01T14:49:49;3.03;;;1.70;;
22780;SDS011;11557;50.884;4.322;2023-04-01T14:54:53;2.70;;;1.33;;
22780;SDS011;11557;50.884;4.322;2023-04-01T15:00:14;4.47;;;1.35;;
22780;SDS011;11557;50.884;4.322;2023-04-01T15:08:18;1.60;;;1.40;;
22780;SDS011;11557;50.884;4.322;2023-04-01T15:13:14;1.60;;;1.50;;
22780;SDS011;11557;50.884;4.322;2023-04-01T15:16:02;5.65;;;2.30;;
22780;SDS011;11557;50.884;4.322;2023-04-01T15:21:37;3.20;;;1.30;;
22780;SDS011;11557;50.884;4.322;2023-04-01T15:24:30;2.20;;;1.42;;
22780;SDS011;11557;50.884;4.322;2023-04-01T15:27:15;1.42;;;1.30;;
22780;SDS011;11557;50.884;4.322;2023-04-01T16:13:02;3.58;;;1.70;;
22780;SDS011;11557;50.884;4.322;2023-04-01T16:15:55;1.77;;;1.38;;
22780;SDS011;11557;50.884;4.322;2023-04-01T16:21:43;1.77;;;1.15;;
22780;SDS011;11557;50.884;4.322;2023-04-01T16:34:58;3.17;;;2.40;;
22780;SDS011;11557;50.884;4.322;2023-04-01T16:37:34;4.70;;;1.70;;
22780;SDS011;11557;50.884;4.322;2023-04-01T16:40:52;1.48;;;1.38;;
22780;SDS011;11557;50.884;4.322;2023-04-01T16:59:35;2.00;;;1.52;;
22780;SDS011;11557;50.884;4.322;2023-04-01T17:02:03;1.60;;;1.50;;
22780;SDS011;11557;50.884;4.322;2023-04-01T17:18:13;4.32;;;2.72;;
22780;SDS011;11557;50.884;4.322;2023-04-01T17:23:59;6.17;;;2.80;;
22780;SDS011;11557;50.884;4.322;2023-04-01T17:26:39;4.43;;;2.65;;
22780;SDS011;11557;50.884;4.322;2023-04-01T17:29:31;2.70;;;2.30;;
22780;SDS011;11557;50.884;4.322;2023-04-01T17:32:04;4.18;;;2.15;;
22780;SDS011;11557;50.884;4.322;2023-04-01T17:35:02;3.50;;;1.85;;
22780;SDS011;11557;50.884;4.322;2023-04-01T17:37:38;2.92;;;1.95;;
22780;SDS011;11557;50.884;4.322;2023-04-01T17:40:28;3.40;;;1.83;;
22780;SDS011;11557;50.884;4.322;2023-04-01T17:45:53;2.88;;;1.98;;
22780;SDS011;11557;50.884;4.322;2023-04-01T17:48:29;3.20;;;1.90;;
22780;SDS011;11557;50.884;4.322;2023-04-01T17:51:24;3.03;;;2.45;;
22780;SDS011;11557;50.884;4.322;2023-04-01T17:56:52;3.55;;;2.40;;
22780;SDS011;11557;50.884;4.322;2023-04-01T17:59:34;5.00;;;4.05;;
22780;SDS011;11557;50.884;4.322;2023-04-01T18:02:10;5.50;;;3.05;;
22780;SDS011;11557;50.884;4.322;2023-04-01T18:13:22;4.72;;;4.07;;
22780;SDS011;11557;50.884;4.322;2023-04-01T18:18:58;5.20;;;4.70;;
22780;SDS011;11557;50.884;4.322;2023-04-01T18:21:45;6.47;;;5.22;;
22780;SDS011;11557;50.884;4.322;2023-04-01T18:26:51;7.18;;;6.47;;
22780;SDS011;11557;50.884;4.322;2023-04-01T18:29:51;9.68;;;7.50;;
22780;SDS011;11557;50.884;4.322;2023-04-01T18:45:37;9.75;;;7.32;;
22780;SDS011;11557;50.884;4.322;2023-04-01T18:50:58;9.75;;;8.75;;
22780;SDS011;11557;50.884;4.322;2023-04-01T18:58:45;12.60;;;9.02;;
22780;SDS011;11557;50.884;4.322;2023-04-01T19:04:15;15.82;;;10.35;;
22780;SDS011;11557;50.884;4.322;2023-04-01T19:06:52;20.02;;;12.55;;
22780;SDS011;11557;50.884;4.322;2023-04-01T19:09:33;18.17;;;14.07;;
22780;SDS011;11557;50.884;4.322;2023-04-01T19:31:07;26.23;;;19.58;;
22780;SDS011;11557;50.884;4.322;2023-04-01T19:36:53;36.28;;;21.13;;
22780;SDS011;11557;50.884;4.322;2023-04-01T19:42:11;35.22;;;22.85;;
22780;SDS011;11557;50.884;4.322;2023-04-01T19:50:40;34.13;;;21.30;;
22780;SDS011;11557;50.884;4.322;2023-04-01T19:58:44;36.73;;;23.50;;
22780;SDS011;11557;50.884;4.322;2023-04-01T20:01:20;28.80;;;22.10;;
22780;SDS011;11557;50.884;4.322;2023-04-01T20:04:04;34.03;;;23.15;;
22780;SDS011;11557;50.884;4.322;2023-04-01T20:06:46;32.92;;;20.50;;
22780;SDS011;11557;50.884;4.322;2023-04-01T20:09:40;31.70;;;20.67;;
22780;SDS011;11557;50.884;4.322;2023-04-01T20:14:57;30.10;;;19.65;;
22780;SDS011;11557;50.884;4.322;2023-04-01T20:17:43;33.22;;;19.63;;
22780;SDS011;11557;50.884;4.322;2023-04-01T20:25:30;31.85;;;18.50;;
22780;SDS011;11557;50.884;4.322;2023-04-01T20:28:02;33.28;;;17.95;;
22780;SDS011;11557;50.884;4.322;2023-04-01T20:38:53;34.22;;;19.85;;
22780;SDS011;11557;50.884;4.322;2023-04-01T20:41:27;27.33;;;17.85;;
22780;SDS011;11557;50.884;4.322;2023-04-01T20:44:12;25.38;;;17.75;;
22780;SDS011;11557;50.884;4.322;2023-04-01T20:58:17;31.08;;;20.13;;
22780;SDS011;11557;50.884;4.322;2023-04-01T21:01:20;35.92;;;21.25;;
22780;SDS011;11557;50.884;4.322;2023-04-01T21:04:22;38.13;;;21.08;;
22780;SDS011;11557;50.884;4.322;2023-04-01T21:12:40;39.83;;;23.85;;
22780;SDS011;11557;50.884;4.322;2023-04-01T21:21:13;41.45;;;22.45;;
22780;SDS011;11557;50.884;4.322;2023-04-01T21:23:59;44.85;;;21.80;;
22780;SDS011;11557;50.884;4.322;2023-04-01T21:35:58;39.60;;;22.17;;
22780;SDS011;11557;50.884;4.322;2023-04-01T21:38:47;35.78;;;21.38;;
22780;SDS011;11557;50.884;4.322;2023-04-01T21:41:23;37.70;;;20.77;;
22780;SDS011;11557;50.884;4.322;2023-04-01T22:03:49;27.40;;;18.58;;
22780;SDS011;11557;50.884;4.322;2023-04-01T22:06:28;27.95;;;19.40;;
22780;SDS011;11557;50.884;4.322;2023-04-01T22:20:00;25.33;;;19.83;;
22780;SDS011;11557;50.884;4.322;2023-04-01T22:26:19;23.73;;;19.35;;
22780;SDS011;11557;50.884;4.322;2023-04-01T22:29:09;22.17;;;19.83;;
22780;SDS011;11557;50.884;4.322;2023-04-01T22:31:44;21.77;;;19.48;;
22780;SDS011;11557;50.884;4.322;2023-04-01T22:39:39;24.77;;;22.17;;
22780;SDS011;11557;50.884;4.322;2023-04-01T22:47:54;25.20;;;22.60;;
22780;SDS011;11557;50.884;4.322;2023-04-01T22:55:42;24.83;;;22.15;;
22780;SDS011;11557;50.884;4.322;2023-04-01T22:58:12;21.88;;;18.85;;
22780;SDS011;11557;50.884;4.322;2023-04-01T23:00:45;22.58;;;19.67;;
22780;SDS011;11557;50.884;4.322;2023-04-01T23:05:56;18.83;;;16.90;;
22780;SDS011;11557;50.884;4.322;2023-04-01T23:08:41;19.35;;;17.13;;
22780;SDS011;11557;50.884;4.322;2023-04-01T23:25:22;23.10;;;20.05;;
22780;SDS011;11557;50.884;4.322;2023-04-01T23:33:50;25.10;;;22.08;;
22780;SDS011;11557;50.884;4.322;2023-04-01T23:36:10;27.23;;;24.33;;
22780;SDS011;11557;50.884;4.322;2023-04-01T23:38:39;31.37;;;25.83;;
22780;SDS011;11557;50.884;4.322;2023-04-01T23:41:07;33.22;;;26.98;;
22780;SDS011;11557;50.884;4.322;2023-04-01T23:44:01;33.58;;;28.35;;
22780;SDS011;11557;50.884;4.322;2023-04-01T23:46:38;33.15;;;27.23;;
22780;SDS011;11557;50.884;4.322;2023-04-01T23:49:06;31.45;;;27.02;;
22780;SDS011;11557;50.884;4.322;2023-04-01T23:51:39;29.30;;;25.85;;
22780;SDS011;11557;50.884;4.322;2023-04-01T23:54:29;28.45;;;24.67;;
22780;SDS011;11557;50.884;4.322;2023-04-01T23:57:06;28.65;;;24.15;;
22780;SDS011;11557;50.884;4.322;2023-04-01T23:59:37;29.20;;;23.27;;
